Airfield :
LOGIN :

Register | Disclaimer

   EN    FR    IT 

 










Legend :    VFR   Marginal VFR   IFR   Intensive IFR   Very Intensive IFR
Visi :
Ceiling :
>= 8 km
>= 3000ft
5 to 8 km
1000 to 3000 ft
1500m to 5 km
500 to 1000 ft
800 to 1500m
200 to 500 ft
< 800m
< 200 ft
Symbols :   Thunderstorms  Fog  Heavy snow  Heavy precipitations  Wind > 20 kt
SIGMETs :     Misc.  Thunderstorms  Icing  Turbulence  Mountain Waves  Volcanic Ashes







- Airport Elevation : 286 ft
- IATA code : FFD


EGVA - RAF Fairford

CURRENT METAR :
  • 191226Z AUTO 14008KT 9999 SCT013 BKN019 16/15 A2954 RMK AO2 CIG 013V019 CIG 012 RWY27 SLP006 $

EXPIRED METARs :
  • 191221Z AUTO 15009KT 9999 BKN013 16/15 A2954 RMK AO2 BKN V SCT CIG 012 RWY27 SLP006 $
  • 191206Z AUTO 12008KT 9999 SCT011 16/15 A2955 RMK AO2 SLP009 $
  • 191136Z AUTO 09007KT 8000 BR OVC008 15/15 A2956 RMK AO2 CIG 006V008 CIG 007 RWY27 SLP013 $
  • 191116Z AUTO 08005KT 5000 BR OVC006 15/15 A2957 RMK AO2 CIG 005 RWY27 SLP016 $
  • 191106Z AUTO 10003KT 5000 BR OVC005 15/14 A2958 RMK AO2 VIS 4000 RWY09 CIG 003V005 CIG 004 RWY09 SLP020 $
  • 191046Z AUTO 09004KT 3600 BR OVC003 14/14 A2960 RMK AO2 CIG 003V005 SLP027 $
  • 191036Z AUTO 09005KT 4000 BR OVC005 14/14 A2960 RMK AO2 VIS 4000V6000 CIG 003 RWY09 SLP027 $
  • 191026Z AUTO 08006KT 6000 BR OVC005 14/14 A2961 RMK AO2 CIG 002 RWY09 SLP030 $
  • 191016Z AUTO 09008KT 5000 BR OVC004 14/14 A2961 RMK AO2 VIS 3200 RWY09 CIG 002 RWY09 SLP030 $
  • 190956Z AUTO 09005KT 2600 BR OVC002 14/13 A2963 RMK AO2 VIS 1600 RWY09 RAE55 CIG 002V004 SLP037 P0012 T01360133 $
  • 190953Z AUTO 09006KT 2400 -RA BR OVC002 14/13 A2963 RMK AO2 CIG 002V004 SLP037 $
  • 190955Z AUTO 09005KT 2600 BR OVC002 14/13 A2963 RMK AO2 VIS 1800 RWY09 RAE55 CIG 002V004 SLP037 $
  • 190943Z AUTO 09006KT 3000 -RA BR OVC004 13/13 A2963 RMK AO2 VIS 3000V4400 CIG 004V021 SLP037 $
  • 190936Z AUTO 09006KT 4000 -RA BR OVC016 13/13 A2964 RMK AO2 VIS 4000V5000 CIG 016V023 CIG 004 RWY09 SLP041 $

Expired Forecast.
No reported NOTAMs for that airfield.



MET'MAP, your aeronautical weather chart ! - Copyright ORBIFLY December 2007 - Disclaimer

ORBIFLY MET'MAP TEAM :

Programming & Development : Alexandra Zaïnal
Concept & Development : Baudouin d'Aumeries
Co-Development & Prog : Marc-Olivier Méhu
Technical & hardware support : Manuel Goepfert

Contact : metmap@orbifly.com




SOURCES & CREDITS :

   NOAA